Time;durP1;ratioP1;P1;durP2;ratioP2;P2;SDS_P1;SDS_P2;PMS_P1;PMS_P2;Temp;Humidity;BMP_temperature;BMP_pressure;BME280_temperature;BME280_humidity;BME280_pressure;Samples;Min_cycle;Max_cycle;Signal;HPM_P1;HPM_P2
2022/07/19 00:00:14;;;;;;;2.30;2.10;;;20.00;62.20;;;;;;5026746;28;20282;-62
2022/07/19 00:02:40;;;;;;;5.53;2.60;;;20.00;62.50;;;;;;5063825;28;20215;-62
2022/07/19 00:05:08;;;;;;;3.00;2.63;;;20.00;62.10;;;;;;5051649;28;20251;-62
2022/07/19 00:07:34;;;;;;;3.37;2.90;;;20.00;63.20;;;;;;5047314;28;20245;-62
2022/07/19 00:10:00;;;;;;;3.40;2.40;;;20.00;62.90;;;;;;5041758;28;20234;-62
2022/07/19 00:12:26;;;;;;;3.07;2.80;;;20.00;62.80;;;;;;5036868;28;20189;-62
2022/07/19 00:14:51;;;;;;;2.87;2.40;;;20.00;62.80;;;;;;5051212;28;20176;-62
2022/07/19 00:17:17;;;;;;;3.10;2.63;;;20.00;62.90;;;;;;5054973;28;20237;-62
2022/07/19 00:19:43;;;;;;;3.50;2.23;;;19.90;63.10;;;;;;5019878;28;20215;-62
2022/07/19 00:22:08;;;;;;;4.07;2.50;;;19.90;63.20;;;;;;5018692;28;20187;-62
2022/07/19 00:24:34;;;;;;;3.13;2.23;;;19.90;63.30;;;;;;5033068;28;20206;-62
2022/07/19 00:26:59;;;;;;;3.90;2.57;;;19.90;63.10;;;;;;5028504;28;20186;-62
2022/07/19 00:29:25;;;;;;;4.10;2.30;;;19.90;63.40;;;;;;5043948;28;20285;-62
2022/07/19 00:31:51;;;;;;;3.00;2.40;;;19.90;63.10;;;;;;5018326;28;20184;-62
2022/07/19 00:34:16;;;;;;;3.03;2.73;;;19.80;62.90;;;;;;5037650;28;20208;-62
2022/07/19 00:36:42;;;;;;;3.03;2.70;;;19.90;62.80;;;;;;5018312;28;20203;-62
2022/07/19 00:39:08;;;;;;;2.53;2.33;;;19.80;63.10;;;;;;5037578;28;20192;-62
2022/07/19 00:41:39;;;;;;;2.73;2.53;;;19.80;63.60;;;;;;5038580;28;20205;-62
2022/07/19 00:44:05;;;;;;;4.00;2.60;;;19.70;63.30;;;;;;5046693;28;20203;-62
2022/07/19 00:46:31;;;;;;;4.67;2.40;;;19.70;63.90;;;;;;5018772;28;20245;-62
2022/07/19 00:48:56;;;;;;;2.33;2.13;;;19.70;64.10;;;;;;5024004;28;20333;-62
2022/07/19 00:51:22;;;;;;;3.03;2.77;;;19.70;64.00;;;;;;5026417;28;20194;-62
2022/07/19 00:53:48;;;;;;;2.83;2.43;;;19.70;63.90;;;;;;5039142;28;20189;-62
2022/07/19 00:56:14;;;;;;;3.17;2.53;;;19.70;64.10;;;;;;5029019;28;20196;-62
2022/07/19 00:58:40;;;;;;;3.50;2.80;;;19.70;64.00;;;;;;5033116;28;20198;-62
2022/07/19 01:01:08;;;;;;;3.30;2.70;;;19.60;64.50;;;;;;5053535;28;20308;-62
2022/07/19 01:03:39;;;;;;;3.20;2.90;;;19.60;64.80;;;;;;5033885;28;20301;-62
2022/07/19 01:06:07;;;;;;;3.47;2.47;;;19.60;64.50;;;;;;5035787;28;20198;-62
2022/07/19 01:08:34;;;;;;;2.60;2.40;;;19.60;64.30;;;;;;5046991;28;20292;-62
2022/07/19 01:11:02;;;;;;;2.80;2.50;;;19.60;64.70;;;;;;5041494;28;20190;-62
2022/07/19 01:13:27;;;;;;;3.07;2.53;;;19.60;65.00;;;;;;5005263;28;20273;-62
2022/07/19 01:15:53;;;;;;;3.13;2.60;;;19.60;65.00;;;;;;4993334;28;20298;-62
2022/07/19 01:18:18;;;;;;;2.80;2.60;;;19.60;65.00;;;;;;5004004;28;20204;-62
2022/07/19 01:20:44;;;;;;;3.23;2.90;;;19.50;65.10;;;;;;5005640;28;20270;-62
2022/07/19 01:23:10;;;;;;;3.93;2.50;;;19.50;65.10;;;;;;4992967;28;20223;-62
2022/07/19 01:25:37;;;;;;;3.40;2.47;;;19.50;65.30;;;;;;5015532;28;20225;-62
2022/07/19 01:28:04;;;;;;;2.80;2.60;;;19.50;65.30;;;;;;5014394;28;20194;-62
2022/07/19 01:30:30;;;;;;;2.90;2.70;;;19.30;65.40;;;;;;5001652;28;20255;-62
2022/07/19 01:32:57;;;;;;;3.03;2.80;;;19.30;65.40;;;;;;4982579;28;20283;-62
2022/07/19 01:35:23;;;;;;;3.00;2.80;;;19.40;65.50;;;;;;5025561;28;20207;-62
2022/07/19 01:37:49;;;;;;;3.10;2.80;;;19.40;65.30;;;;;;4981438;28;20278;-62
2022/07/19 01:40:16;;;;;;;3.37;3.07;;;19.40;65.40;;;;;;5010597;28;20249;-62
2022/07/19 01:42:43;;;;;;;3.03;2.73;;;19.30;65.70;;;;;;4998939;28;20313;-62
2022/07/19 01:45:10;;;;;;;4.67;2.90;;;19.30;65.50;;;;;;5017157;28;20187;-62
2022/07/19 01:47:36;;;;;;;3.33;3.00;;;19.30;65.60;;;;;;4983711;28;20192;-62
2022/07/19 01:50:03;;;;;;;3.37;3.03;;;19.30;65.70;;;;;;5015871;28;20258;-62
2022/07/19 01:52:28;;;;;;;3.33;2.60;;;19.20;66.00;;;;;;4998983;28;20202;-62
2022/07/19 01:54:54;;;;;;;3.70;2.40;;;19.20;65.90;;;;;;5000781;28;20183;-62
2022/07/19 01:57:20;;;;;;;3.10;2.90;;;19.30;66.00;;;;;;4980538;28;20282;-62
2022/07/19 01:59:45;;;;;;;3.17;2.87;;;19.20;66.10;;;;;;4981456;28;20304;-62
2022/07/19 02:02:11;;;;;;;3.03;2.70;;;19.30;66.10;;;;;;4977781;28;20222;-62
2022/07/19 02:04:37;;;;;;;3.13;2.83;;;19.20;66.00;;;;;;4973667;28;20227;-62
2022/07/19 02:07:03;;;;;;;3.80;2.53;;;19.20;65.70;;;;;;4995211;28;20279;-62
2022/07/19 02:09:28;;;;;;;3.23;2.90;;;19.20;65.70;;;;;;5028177;28;20310;-63
2022/07/19 02:11:54;;;;;;;3.33;2.90;;;19.20;65.70;;;;;;5009971;28;20278;-62
2022/07/19 02:14:20;;;;;;;3.07;2.77;;;19.20;65.70;;;;;;4991805;28;20202;-62
2022/07/19 02:16:45;;;;;;;4.03;3.17;;;19.20;65.80;;;;;;5006938;28;20207;-62
2022/07/19 02:19:11;;;;;;;4.60;3.03;;;19.10;66.00;;;;;;4983444;28;20196;-62
2022/07/19 02:21:38;;;;;;;4.03;3.03;;;19.20;66.00;;;;;;4994175;28;20203;-62
2022/07/19 02:24:05;;;;;;;3.23;2.93;;;19.20;66.10;;;;;;5040453;28;20215;-62
2022/07/19 02:26:32;;;;;;;4.53;2.90;;;19.10;66.30;;;;;;4996319;28;20230;-62
2022/07/19 02:28:57;;;;;;;4.43;3.10;;;19.10;66.20;;;;;;5003646;28;20291;-62
2022/07/19 02:31:23;;;;;;;2.60;2.40;;;19.10;66.50;;;;;;5025074;28;20247;-62
2022/07/19 02:33:49;;;;;;;3.53;3.00;;;19.00;66.50;;;;;;4998438;28;20191;-62
2022/07/19 02:36:16;;;;;;;3.47;2.73;;;19.00;66.40;;;;;;5026276;28;20189;-62
2022/07/19 02:38:43;;;;;;;3.20;2.87;;;19.00;66.60;;;;;;4997624;28;20290;-62
2022/07/19 02:41:09;;;;;;;4.23;2.90;;;19.00;66.60;;;;;;5005946;28;20222;-62
2022/07/19 02:43:35;;;;;;;3.10;2.90;;;19.10;66.70;;;;;;5020641;28;20244;-62
2022/07/19 02:46:00;;;;;;;3.10;2.90;;;19.00;66.80;;;;;;4984022;28;20183;-62
2022/07/19 02:48:26;;;;;;;3.30;3.00;;;19.00;66.80;;;;;;4981155;28;20196;-62
2022/07/19 02:50:52;;;;;;;3.00;2.70;;;18.90;66.80;;;;;;5013274;28;20194;-62
2022/07/19 02:53:17;;;;;;;3.10;2.87;;;19.00;67.00;;;;;;4991673;28;20192;-62
2022/07/19 02:55:43;;;;;;;3.60;3.30;;;19.00;66.90;;;;;;4981990;28;20191;-62
2022/07/19 02:58:09;;;;;;;4.03;2.60;;;18.80;67.30;;;;;;4981016;28;20196;-62
2022/07/19 03:00:34;;;;;;;2.90;2.70;;;18.70;67.10;;;;;;5019086;28;20201;-62
2022/07/19 03:05:46;;;;;;;4.00;3.47;;;18.70;67.30;;;;;;5012117;28;20191;-62
2022/07/19 03:08:11;;;;;;;3.27;3.00;;;18.70;67.50;;;;;;4999032;28;20184;-62
2022/07/19 03:10:37;;;;;;;3.43;3.13;;;18.70;67.60;;;;;;5019167;28;20231;-62
2022/07/19 03:13:03;;;;;;;3.47;3.07;;;18.50;67.50;;;;;;5054179;28;20197;-62
2022/07/19 03:15:29;;;;;;;3.37;3.13;;;18.60;67.10;;;;;;5046977;28;20192;-62
2022/07/19 03:17:55;;;;;;;3.83;3.23;;;18.50;67.70;;;;;;5047959;28;20187;-62
2022/07/19 03:20:21;;;;;;;3.33;3.00;;;18.60;67.40;;;;;;5046761;28;20223;-62
2022/07/19 03:22:46;;;;;;;3.33;3.00;;;18.40;68.00;;;;;;5021382;28;20250;-62
2022/07/19 03:25:12;;;;;;;4.17;3.37;;;18.50;68.10;;;;;;5022786;28;20194;-62
2022/07/19 03:27:38;;;;;;;3.37;3.07;;;18.60;67.90;;;;;;5039493;28;20210;-62
2022/07/19 03:30:04;;;;;;;3.50;3.20;;;18.60;67.60;;;;;;5019653;28;20245;-62
2022/07/19 03:32:30;;;;;;;3.60;3.30;;;18.50;66.90;;;;;;5048247;28;20183;-62
2022/07/19 03:34:56;;;;;;;4.17;3.17;;;18.40;68.10;;;;;;5034391;28;20211;-62
2022/07/19 03:37:21;;;;;;;3.83;2.97;;;18.50;68.00;;;;;;5038433;28;20217;-62
2022/07/19 03:39:47;;;;;;;3.47;2.90;;;18.50;68.10;;;;;;5039405;28;20187;-62
2022/07/19 03:42:13;;;;;;;3.43;3.13;;;18.60;67.70;;;;;;5037969;28;20207;-62
2022/07/19 03:44:38;;;;;;;3.37;3.10;;;18.60;67.80;;;;;;5038624;28;20214;-62
2022/07/19 03:47:04;;;;;;;3.37;2.90;;;18.60;67.90;;;;;;5029629;28;20183;-62
2022/07/19 03:49:29;;;;;;;3.90;3.03;;;18.50;68.10;;;;;;5009478;28;20286;-62
2022/07/19 03:51:55;;;;;;;4.00;3.60;;;18.50;68.10;;;;;;5018335;28;20186;-62
2022/07/19 03:54:21;;;;;;;3.27;3.07;;;18.50;67.90;;;;;;5037152;28;20195;-62
2022/07/19 03:56:47;;;;;;;3.77;3.43;;;18.50;68.50;;;;;;5056084;28;20198;-62
2022/07/19 03:59:13;;;;;;;3.77;3.47;;;18.30;68.20;;;;;;5055150;28;20210;-62
2022/07/19 04:01:40;;;;;;;3.90;3.60;;;18.30;68.80;;;;;;5040549;28;20207;-62
2022/07/19 04:04:06;;;;;;;3.97;3.67;;;18.40;68.30;;;;;;5031772;28;20206;-62
2022/07/19 04:06:32;;;;;;;3.37;3.07;;;18.40;68.70;;;;;;5022608;28;20268;-62
2022/07/19 04:08:58;;;;;;;4.73;3.83;;;18.40;68.80;;;;;;5026435;28;20273;-62
2022/07/19 04:11:23;;;;;;;4.37;3.13;;;18.40;68.90;;;;;;5034695;28;20308;-62
2022/07/19 04:13:49;;;;;;;3.70;3.40;;;18.50;69.00;;;;;;5059076;28;20285;-62
2022/07/19 04:16:15;;;;;;;3.73;3.43;;;18.50;69.00;;;;;;5036035;28;20199;-62
2022/07/19 04:18:40;;;;;;;3.80;3.37;;;18.60;69.10;;;;;;5034867;28;20235;-62
2022/07/19 04:21:06;;;;;;;4.03;3.50;;;18.60;68.70;;;;;;5033408;28;20198;-62
2022/07/19 04:23:32;;;;;;;4.50;3.90;;;18.60;68.80;;;;;;5035061;28;20243;-62
2022/07/19 04:25:58;;;;;;;4.00;3.60;;;18.50;69.20;;;;;;5035280;28;20252;-62
2022/07/19 04:28:24;;;;;;;3.77;3.47;;;18.60;69.40;;;;;;5038699;28;20198;-62
2022/07/19 04:30:50;;;;;;;5.03;3.37;;;18.50;69.60;;;;;;5036865;28;20281;-62
2022/07/19 04:33:17;;;;;;;5.67;3.57;;;18.50;69.80;;;;;;5043247;28;20183;-62
2022/07/19 04:35:43;;;;;;;4.13;3.73;;;18.50;69.90;;;;;;5018241;28;20213;-62
2022/07/19 04:38:08;;;;;;;4.00;3.60;;;18.60;69.70;;;;;;5050965;28;20187;-62
2022/07/19 04:40:34;;;;;;;4.07;3.70;;;18.60;69.70;;;;;;5022065;28;20197;-62
2022/07/19 04:43:00;;;;;;;4.57;3.60;;;18.60;69.60;;;;;;5034069;28;20288;-62
2022/07/19 04:45:26;;;;;;;5.90;3.80;;;18.60;69.90;;;;;;5035875;28;20194;-62
2022/07/19 04:47:51;;;;;;;4.87;3.70;;;18.60;69.90;;;;;;5033380;28;20354;-62
2022/07/19 04:50:17;;;;;;;4.43;3.63;;;18.60;70.00;;;;;;5053081;28;20209;-62
2022/07/19 04:52:43;;;;;;;4.20;3.80;;;18.60;69.80;;;;;;5036428;28;20248;-62
2022/07/19 04:55:09;;;;;;;4.57;4.17;;;18.60;69.80;;;;;;5036615;28;20205;-62
2022/07/19 04:57:35;;;;;;;4.67;3.43;;;18.60;69.90;;;;;;5051233;28;20255;-62
2022/07/19 05:00:01;;;;;;;3.93;3.20;;;18.60;69.90;;;;;;5053589;28;20254;-62
2022/07/19 05:02:27;;;;;;;4.17;3.70;;;18.50;70.10;;;;;;5037603;28;20190;-62
2022/07/19 05:04:52;;;;;;;4.37;3.97;;;18.60;70.20;;;;;;5040471;28;20217;-62
2022/07/19 05:07:18;;;;;;;4.53;3.60;;;18.70;70.00;;;;;;5035359;28;20188;-62
2022/07/19 05:09:44;;;;;;;6.23;3.57;;;18.70;69.90;;;;;;5017928;28;20281;-62
2022/07/19 05:12:10;;;;;;;4.57;3.37;;;18.70;70.00;;;;;;5023254;28;20183;-62
2022/07/19 05:14:36;;;;;;;4.07;3.70;;;18.70;69.90;;;;;;5028418;28;20199;-62
2022/07/19 05:17:02;;;;;;;3.37;3.07;;;18.70;70.10;;;;;;5050167;28;20254;-61
2022/07/19 05:19:28;;;;;;;4.03;3.57;;;18.70;70.10;;;;;;5046748;28;20190;-60
2022/07/19 05:21:53;;;;;;;4.27;3.20;;;18.70;70.30;;;;;;5045110;28;20217;-61
2022/07/19 05:24:19;;;;;;;6.90;4.20;;;18.80;70.30;;;;;;5029412;28;20211;-61
2022/07/19 05:26:45;;;;;;;4.20;3.50;;;18.70;70.20;;;;;;5037606;28;20187;-60
2022/07/19 05:29:11;;;;;;;3.53;3.23;;;18.70;70.20;;;;;;5017786;28;20280;-61
2022/07/19 05:31:37;;;;;;;5.03;3.27;;;18.80;69.80;;;;;;5011862;28;20187;-61
2022/07/19 05:34:03;;;;;;;3.87;3.47;;;18.80;69.70;;;;;;5041398;28;20184;-61
2022/07/19 05:36:29;;;;;;;4.27;3.83;;;18.80;69.60;;;;;;5038008;28;20206;-60
2022/07/19 05:38:55;;;;;;;3.90;3.60;;;18.80;69.60;;;;;;5036685;28;20188;-62
2022/07/19 05:41:21;;;;;;;4.20;3.80;;;18.80;69.80;;;;;;5025697;28;20192;-62
2022/07/19 05:43:48;;;;;;;4.17;3.77;;;18.80;69.90;;;;;;5049336;28;20207;-65
2022/07/19 05:46:13;;;;;;;4.40;4.00;;;18.80;69.90;;;;;;5048594;28;20206;-67
2022/07/19 05:48:39;;;;;;;3.73;3.40;;;18.80;69.80;;;;;;5050678;28;20244;-65
2022/07/19 05:51:05;;;;;;;4.13;3.37;;;18.80;69.90;;;;;;5049611;28;20196;-63
2022/07/19 05:53:31;;;;;;;4.30;3.60;;;18.80;69.50;;;;;;5035467;28;20195;-63
2022/07/19 05:55:57;;;;;;;5.10;3.97;;;18.90;72.50;;;;;;5033293;28;20199;-62
2022/07/19 05:58:24;;;;;;;8.40;7.60;;;18.80;72.70;;;;;;5054339;28;20241;-62
2022/07/19 06:03:35;;;;;;;4.90;4.40;;;18.90;71.60;;;;;;5047423;28;20233;-62
2022/07/19 06:06:00;;;;;;;6.90;4.20;;;18.90;71.60;;;;;;5032431;28;20195;-61
2022/07/19 06:08:26;;;;;;;4.03;3.73;;;18.90;71.20;;;;;;5048006;28;20237;-62
2022/07/19 06:10:51;;;;;;;3.40;3.03;;;19.00;71.20;;;;;;4996029;28;20198;-61
2022/07/19 06:13:17;;;;;;;4.00;3.60;;;19.00;71.20;;;;;;4972924;28;20217;-62
2022/07/19 06:15:43;;;;;;;3.70;3.40;;;19.00;71.30;;;;;;4984137;28;20227;-61
2022/07/19 06:18:08;;;;;;;6.70;3.50;;;19.00;71.20;;;;;;4967967;28;20282;-61
2022/07/19 06:20:34;;;;;;;7.90;3.37;;;19.10;71.20;;;;;;4992752;28;20238;-61
2022/07/19 06:23:00;;;;;;;4.53;3.70;;;19.20;71.30;;;;;;4985702;28;20273;-61
2022/07/19 06:25:25;;;;;;;5.47;3.70;;;19.20;71.40;;;;;;4984121;28;20190;-61
2022/07/19 06:27:51;;;;;;;4.53;3.63;;;19.20;71.40;;;;;;4980767;28;20196;-60
2022/07/19 06:30:16;;;;;;;5.27;3.83;;;19.20;71.20;;;;;;4979617;28;20290;-61
2022/07/19 06:32:42;;;;;;;6.57;3.50;;;19.20;71.10;;;;;;5007036;28;20190;-60
2022/07/19 06:35:08;;;;;;;5.67;3.73;;;19.30;70.00;;;;;;4998590;28;20184;-61
2022/07/19 06:37:34;;;;;;;8.20;3.97;;;19.30;70.70;;;;;;4989694;28;20201;-60
2022/07/19 06:40:00;;;;;;;5.83;3.93;;;19.30;69.60;;;;;;4991095;28;20196;-62
2022/07/19 06:42:25;;;;;;;4.43;3.90;;;19.30;70.40;;;;;;4995814;28;20192;-61
2022/07/19 06:44:51;;;;;;;5.17;3.70;;;19.40;69.20;;;;;;5003793;28;20207;-60
2022/07/19 06:47:16;;;;;;;7.47;3.53;;;19.40;69.60;;;;;;5017525;28;20262;-61
2022/07/19 06:49:43;;;;;;;5.30;3.90;;;19.40;69.30;;;;;;5000188;28;20191;-61
2022/07/19 06:52:08;;;;;;;4.90;3.77;;;19.50;69.20;;;;;;5020396;28;20183;-61
2022/07/19 06:55:11;;;;;;;7.73;4.37;;;19.50;69.10;;;;;;5017069;28;20202;-60
2022/07/19 06:57:38;;;;;;;6.30;3.57;;;19.60;69.10;;;;;;5008008;28;20283;-60
2022/07/19 07:00:07;;;;;;;9.07;4.10;;;19.70;68.20;;;;;;4999379;28;20228;-60
2022/07/19 07:02:35;;;;;;;6.80;4.03;;;19.70;67.30;;;;;;4997257;28;20188;-60
2022/07/19 07:05:00;;;;;;;4.83;4.33;;;19.80;67.60;;;;;;5013993;28;20202;-61
2022/07/19 07:07:26;;;;;;;5.33;3.70;;;19.80;67.40;;;;;;4987329;28;20192;-60
2022/07/19 07:09:52;;;;;;;4.27;3.87;;;19.80;67.50;;;;;;5012013;28;20317;-60
2022/07/19 07:12:17;;;;;;;5.87;3.57;;;19.80;68.70;;;;;;5021559;28;20195;-60
2022/07/19 07:14:43;;;;;;;7.87;4.03;;;19.80;68.20;;;;;;5039266;28;20182;-60
2022/07/19 07:17:09;;;;;;;7.17;4.00;;;19.90;67.70;;;;;;5048682;28;20212;-62
2022/07/19 07:19:34;;;;;;;4.37;3.73;;;19.90;67.90;;;;;;5037642;28;20187;-63
2022/07/19 07:22:01;;;;;;;4.67;4.10;;;20.00;68.20;;;;;;5033936;28;20321;-61
2022/07/19 07:24:27;;;;;;;5.57;3.70;;;20.00;68.20;;;;;;5047311;28;20225;-63
2022/07/19 07:26:52;;;;;;;5.90;3.50;;;20.00;68.80;;;;;;5028405;28;20191;-65
2022/07/19 07:29:19;;;;;;;5.87;4.53;;;20.00;68.80;;;;;;5047256;28;20186;-64
2022/07/19 07:31:44;;;;;;;6.07;4.33;;;20.10;68.30;;;;;;5056972;28;20182;-63
2022/07/19 07:34:10;;;;;;;8.93;4.90;;;20.10;68.20;;;;;;5048749;28;20197;-64
2022/07/19 07:36:36;;;;;;;5.40;4.20;;;20.20;68.30;;;;;;5054034;28;20191;-65
2022/07/19 07:39:02;;;;;;;6.07;3.50;;;20.10;68.70;;;;;;5055788;28;20256;-64
2022/07/19 07:41:28;;;;;;;6.23;4.30;;;20.20;68.40;;;;;;5073376;28;20186;-64
2022/07/19 07:43:54;;;;;;;4.40;4.00;;;20.20;68.50;;;;;;5052296;28;20203;-65
2022/07/19 07:46:19;;;;;;;5.00;3.87;;;20.20;69.00;;;;;;5045454;28;20197;-64
2022/07/19 07:48:45;;;;;;;4.67;3.87;;;20.20;69.80;;;;;;5022777;28;20236;-64
2022/07/19 07:51:11;;;;;;;5.53;3.57;;;20.30;69.40;;;;;;5050549;28;20179;-66
2022/07/19 07:53:37;;;;;;;5.33;3.87;;;20.30;69.70;;;;;;5036079;28;20196;-64
2022/07/19 07:56:02;;;;;;;4.10;3.60;;;20.30;68.00;;;;;;5019564;28;20186;-65
2022/07/19 07:58:28;;;;;;;4.50;3.53;;;20.40;68.00;;;;;;5036547;28;20207;-64
2022/07/19 08:00:54;;;;;;;4.50;3.93;;;20.50;68.30;;;;;;5023541;28;20186;-64
2022/07/19 08:03:19;;;;;;;4.73;3.63;;;20.60;66.30;;;;;;5020589;28;20313;-65
2022/07/19 08:05:47;;;;;;;3.90;3.50;;;20.60;65.90;;;;;;5038135;28;20273;-65
2022/07/19 08:08:16;;;;;;;3.53;3.23;;;20.60;65.70;;;;;;5031139;28;20199;-65
2022/07/19 08:10:43;;;;;;;5.80;2.87;;;20.70;63.90;;;;;;5057563;28;20255;-65
2022/07/19 08:13:09;;;;;;;3.10;2.80;;;20.80;63.40;;;;;;5048674;28;20226;-65
2022/07/19 08:15:36;;;;;;;3.53;3.00;;;20.80;61.70;;;;;;5037929;28;20214;-65
2022/07/19 08:18:02;;;;;;;3.10;2.80;;;20.80;62.00;;;;;;5017885;28;20190;-65
2022/07/19 08:20:28;;;;;;;7.37;3.00;;;20.90;61.40;;;;;;5053339;28;20235;-65
2022/07/19 08:22:54;;;;;;;4.93;2.93;;;21.00;59.20;;;;;;5037359;28;20195;-65
2022/07/19 08:25:19;;;;;;;3.13;2.87;;;21.10;60.50;;;;;;5042998;28;20190;-65
2022/07/19 08:27:45;;;;;;;3.37;2.90;;;21.20;57.90;;;;;;5053773;28;20197;-65
2022/07/19 08:30:12;;;;;;;4.63;3.10;;;21.30;57.90;;;;;;5019825;28;20200;-65
2022/07/19 08:32:38;;;;;;;4.33;2.67;;;21.30;58.80;;;;;;5037419;28;20213;-65
2022/07/19 08:35:05;;;;;;;4.00;2.80;;;21.40;55.50;;;;;;5053888;28;20190;-65
2022/07/19 08:37:31;;;;;;;4.73;3.00;;;21.50;56.30;;;;;;5065139;28;20190;-66
2022/07/19 08:39:57;;;;;;;4.17;2.70;;;21.60;56.50;;;;;;5070292;28;20201;-65
2022/07/19 08:42:23;;;;;;;5.90;3.23;;;21.70;55.00;;;;;;5035020;28;20210;-65
2022/07/19 08:44:51;;;;;;;4.13;3.13;;;21.80;55.10;;;;;;5019549;28;20210;-65
2022/07/19 08:47:21;;;;;;;4.70;2.80;;;21.80;54.30;;;;;;5017226;28;20194;-65
2022/07/19 08:49:48;;;;;;;4.33;2.90;;;21.80;54.50;;;;;;5053390;28;20186;-65
2022/07/19 08:52:15;;;;;;;3.00;2.67;;;21.90;54.00;;;;;;5030709;28;20198;-65
2022/07/19 08:54:41;;;;;;;4.77;2.53;;;21.90;54.20;;;;;;5026132;28;20191;-65
2022/07/19 08:59:51;;;;;;;3.53;2.80;;;22.10;52.80;;;;;;5056709;28;20328;-65
2022/07/19 09:02:17;;;;;;;3.80;3.10;;;22.10;52.70;;;;;;5037394;28;20289;-65
2022/07/19 09:04:43;;;;;;;2.60;2.37;;;22.20;51.40;;;;;;5016827;28;20217;-65
2022/07/19 09:07:08;;;;;;;7.20;3.03;;;22.20;52.10;;;;;;5050208;28;20186;-65
2022/07/19 09:09:36;;;;;;;2.90;2.60;;;22.20;53.60;;;;;;5036567;28;20310;-65
2022/07/19 09:12:04;;;;;;;5.83;2.60;;;22.40;51.80;;;;;;5048117;28;20226;-65
2022/07/19 09:14:35;;;;;;;4.90;2.40;;;22.40;52.70;;;;;;5033022;28;20206;-65
2022/07/19 09:17:16;;;;;;;5.50;2.73;;;22.40;52.70;;;;;;5052379;28;20277;-65
2022/07/19 09:19:46;;;;;;;2.80;2.50;;;22.40;53.70;;;;;;5064351;28;20222;-65
2022/07/19 09:22:17;;;;;;;2.33;2.13;;;22.50;50.20;;;;;;5042089;28;20202;-65
2022/07/19 09:24:49;;;;;;;2.87;2.63;;;22.60;50.40;;;;;;5047489;28;20221;-65
2022/07/19 09:27:27;;;;;;;4.33;2.03;;;22.70;49.70;;;;;;5033094;28;20214;-65
2022/07/19 09:29:55;;;;;;;2.73;2.40;;;22.70;50.90;;;;;;5032987;28;20225;-65
2022/07/19 09:32:24;;;;;;;3.10;2.17;;;22.70;51.80;;;;;;5046993;28;20183;-65
2022/07/19 09:35:05;;;;;;;3.10;2.80;;;22.80;51.20;;;;;;5019832;28;20190;-65
2022/07/19 09:37:34;;;;;;;4.27;2.57;;;23.00;47.90;;;;;;5032775;28;20258;-65
2022/07/19 09:40:08;;;;;;;2.50;2.17;;;23.20;47.60;;;;;;5032616;28;20194;-65
2022/07/19 09:42:38;;;;;;;3.67;2.40;;;23.10;50.00;;;;;;5060619;28;20241;-65
2022/07/19 09:45:07;;;;;;;3.83;2.60;;;23.10;52.20;;;;;;5032374;28;20315;-65
2022/07/19 09:47:43;;;;;;;3.07;2.13;;;23.00;53.00;;;;;;5033696;28;20237;-65
2022/07/19 09:50:12;;;;;;;3.13;2.67;;;23.00;53.90;;;;;;5032660;28;20285;-65
2022/07/19 09:52:39;;;;;;;6.07;2.70;;;23.00;54.70;;;;;;5032873;28;20195;-65
2022/07/19 09:55:07;;;;;;;4.13;2.30;;;23.00;51.10;;;;;;4999948;28;20206;-65
2022/07/19 09:57:35;;;;;;;5.20;2.40;;;23.00;49.60;;;;;;5032763;28;20190;-65
2022/07/19 10:00:03;;;;;;;4.80;2.40;;;23.00;48.40;;;;;;5040743;28;20197;-65
2022/07/19 10:02:31;;;;;;;5.47;2.77;;;23.00;48.80;;;;;;5059302;28;20187;-65
2022/07/19 10:04:58;;;;;;;2.30;2.10;;;23.00;46.10;;;;;;5051898;28;20214;-65
2022/07/19 10:07:24;;;;;;;2.97;2.40;;;23.30;46.60;;;;;;5032004;28;20186;-65
2022/07/19 10:09:50;;;;;;;2.57;2.00;;;23.30;47.30;;;;;;5018369;28;20239;-65
2022/07/19 10:12:16;;;;;;;2.93;2.43;;;23.30;46.70;;;;;;5034383;28;20344;-65
2022/07/19 10:14:42;;;;;;;3.50;2.37;;;23.40;46.50;;;;;;5035547;28;20253;-65
2022/07/19 10:17:14;;;;;;;2.83;2.30;;;23.50;45.70;;;;;;5051355;28;20199;-65
2022/07/19 10:19:48;;;;;;;3.63;2.40;;;23.60;45.60;;;;;;5057592;28;20185;-65
2022/07/19 10:22:32;;;;;;;2.63;2.27;;;23.80;45.90;;;;;;5055650;28;20194;-65
2022/07/19 10:25:04;;;;;;;4.13;2.50;;;23.70;48.10;;;;;;5041755;28;20214;-65
2022/07/19 10:27:29;;;;;;;2.40;2.20;;;23.70;46.80;;;;;;5050927;28;20186;-65
2022/07/19 10:29:58;;;;;;;2.80;2.43;;;23.70;46.50;;;;;;5051750;28;20269;-65
2022/07/19 10:32:29;;;;;;;4.73;2.50;;;23.80;46.80;;;;;;5052019;28;20244;-65
2022/07/19 10:35:17;;;;;;;3.23;2.27;;;23.80;46.40;;;;;;5051652;28;20187;-64
2022/07/19 10:37:44;;;;;;;3.13;2.13;;;23.80;49.30;;;;;;5048815;28;20240;-65
2022/07/19 10:40:10;;;;;;;3.23;1.90;;;23.80;44.70;;;;;;5046912;28;20186;-65
2022/07/19 10:42:36;;;;;;;3.00;2.13;;;23.90;46.30;;;;;;5035223;28;20197;-65
2022/07/19 10:45:02;;;;;;;3.23;2.00;;;23.90;46.50;;;;;;5020745;28;20214;-65
2022/07/19 10:47:39;;;;;;;2.77;2.20;;;24.00;47.10;;;;;;5049517;28;20186;-65
2022/07/19 10:50:09;;;;;;;2.77;2.03;;;24.00;47.20;;;;;;5057807;28;20189;-65
2022/07/19 10:52:36;;;;;;;2.50;2.30;;;23.90;46.60;;;;;;5049571;28;20258;-64
2022/07/19 10:55:17;;;;;;;4.00;2.00;;;23.90;46.80;;;;;;5038720;28;20197;-65
2022/07/19 10:58:11;;;;;;;2.90;2.13;;;24.00;48.80;;;;;;5050679;28;20608;-65
2022/07/19 11:00:48;;;;;;;6.43;2.50;;;24.10;45.50;;;;;;5047459;28;20240;-65
2022/07/19 11:03:20;;;;;;;3.30;2.30;;;24.10;47.10;;;;;;5064484;28;20205;-64
2022/07/19 11:05:49;;;;;;;2.50;2.13;;;24.20;46.70;;;;;;5051971;28;20210;-65
2022/07/19 11:08:15;;;;;;;3.53;2.17;;;24.30;44.80;;;;;;5049511;28;20186;-65
2022/07/19 11:10:40;;;;;;;4.20;2.10;;;24.30;45.40;;;;;;5052907;28;20275;-65
2022/07/19 11:13:07;;;;;;;4.30;2.33;;;24.30;46.30;;;;;;5026703;28;20210;-65
2022/07/19 11:15:33;;;;;;;2.73;2.27;;;24.40;45.00;;;;;;5050783;28;20194;-64
2022/07/19 11:18:05;;;;;;;2.17;2.07;;;24.50;44.80;;;;;;5034664;28;20194;-64
2022/07/19 11:20:33;;;;;;;4.20;2.50;;;24.40;46.30;;;;;;5054965;28;20250;-64
2022/07/19 11:23:00;;;;;;;2.77;2.20;;;24.50;45.60;;;;;;5031621;28;20224;-64
2022/07/19 11:25:29;;;;;;;2.33;2.20;;;24.50;46.80;;;;;;5015196;28;20183;-64
2022/07/19 11:27:55;;;;;;;2.83;2.53;;;24.60;49.10;;;;;;5051159;28;20183;-64
2022/07/19 11:30:23;;;;;;;2.63;2.40;;;24.70;48.10;;;;;;5035248;28;20187;-64
2022/07/19 11:32:57;;;;;;;2.90;2.33;;;24.70;46.40;;;;;;5048974;28;20225;-65
2022/07/19 11:35:23;;;;;;;2.33;2.00;;;24.80;47.70;;;;;;5047531;28;20214;-64
2022/07/19 11:37:53;;;;;;;3.30;2.00;;;24.80;49.70;;;;;;5037941;28;20420;-64
2022/07/19 11:40:18;;;;;;;2.13;1.90;;;24.90;45.90;;;;;;5062400;28;20187;-64
2022/07/19 11:42:46;;;;;;;2.53;2.33;;;25.00;45.60;;;;;;5053938;28;20246;-65
2022/07/19 11:45:12;;;;;;;3.70;2.43;;;25.10;42.60;;;;;;5036104;28;20215;-65
2022/07/19 11:47:41;;;;;;;4.80;2.10;;;25.20;41.80;;;;;;5043356;28;20206;-65
2022/07/19 11:50:09;;;;;;;2.47;2.00;;;25.30;44.80;;;;;;5058955;28;20191;-65
2022/07/19 11:52:48;;;;;;;3.43;2.10;;;25.30;42.80;;;;;;5049673;28;20186;-65
2022/07/19 11:55:17;;;;;;;7.67;2.47;;;25.50;45.80;;;;;;5052553;28;20194;-65
2022/07/19 11:57:44;;;;;;;3.90;2.43;;;25.50;44.40;;;;;;5053332;28;20558;-65
2022/07/19 12:00:11;;;;;;;3.80;2.40;;;25.60;44.60;;;;;;5039600;28;20203;-65
2022/07/19 12:03:03;;;;;;;2.37;1.90;;;25.70;43.50;;;;;;5042409;28;20210;-65
2022/07/19 12:05:34;;;;;;;4.17;2.30;;;25.90;42.60;;;;;;5049757;28;20283;-65
2022/07/19 12:08:03;;;;;;;5.60;2.20;;;26.10;42.50;;;;;;5057769;28;20285;-65
2022/07/19 12:10:44;;;;;;;2.50;2.30;;;26.20;45.80;;;;;;5037300;28;20291;-65
2022/07/19 12:13:15;;;;;;;3.50;2.13;;;26.30;43.50;;;;;;5012903;28;20210;-65
2022/07/19 12:15:47;;;;;;;2.50;2.30;;;26.50;43.90;;;;;;5025716;28;20184;-65
2022/07/19 12:18:14;;;;;;;4.77;2.20;;;26.70;43.10;;;;;;5010979;28;20183;-65
2022/07/19 12:20:40;;;;;;;2.73;2.47;;;26.80;44.20;;;;;;5021745;28;20186;-65
2022/07/19 12:23:22;;;;;;;2.60;2.13;;;27.00;42.80;;;;;;4981203;28;20188;-65
2022/07/19 12:25:49;;;;;;;2.57;2.30;;;27.20;43.60;;;;;;4998486;28;20206;-65
2022/07/19 12:28:15;;;;;;;2.47;2.27;;;27.30;45.50;;;;;;4986764;28;20199;-65
2022/07/19 12:30:40;;;;;;;5.57;2.03;;;27.50;45.10;;;;;;5022486;28;20274;-65
2022/07/19 12:33:11;;;;;;;2.53;2.33;;;27.70;45.80;;;;;;5000781;28;20202;-65
2022/07/19 12:35:47;;;;;;;2.87;2.67;;;27.90;42.90;;;;;;5015521;28;20183;-66
2022/07/19 12:38:14;;;;;;;4.23;2.13;;;28.00;46.40;;;;;;5009168;28;20179;-66
2022/07/19 12:40:44;;;;;;;2.00;1.80;;;28.30;41.80;;;;;;5000991;28;20268;-66
2022/07/19 12:43:13;;;;;;;3.77;2.20;;;28.50;43.70;;;;;;5027032;28;20190;-66
2022/07/19 12:45:46;;;;;;;3.37;2.40;;;28.60;41.40;;;;;;5020265;28;20210;-66
2022/07/19 12:48:14;;;;;;;3.87;2.30;;;28.80;41.80;;;;;;5002250;28;20183;-66
2022/07/19 12:50:51;;;;;;;3.43;2.20;;;29.10;42.30;;;;;;5016233;28;20187;-66
2022/07/19 12:53:17;;;;;;;2.70;2.07;;;29.40;39.90;;;;;;5016813;28;20198;-66
2022/07/19 12:55:44;;;;;;;2.30;2.10;;;29.50;38.70;;;;;;5005740;28;20218;-66